sensor_id;sensor_type;location;lat;lon;timestamp;P1;durP1;ratioP1;P2;durP2;ratioP2
70549;SDS011;58101;48.658;2.328;2022-07-19T00:03:42;11.60;;;2.50;;
70549;SDS011;58101;48.658;2.328;2022-07-19T00:09:30;6.85;;;2.20;;
70549;SDS011;58101;48.658;2.328;2022-07-19T00:14:22;6.93;;;2.30;;
70549;SDS011;58101;48.658;2.328;2022-07-19T00:16:50;7.82;;;2.30;;
70549;SDS011;58101;48.658;2.328;2022-07-19T00:19:25;8.52;;;2.80;;
70549;SDS011;58101;48.658;2.328;2022-07-19T00:25:14;10.27;;;2.50;;
70549;SDS011;58101;48.658;2.328;2022-07-19T00:27:39;7.32;;;2.60;;
70549;SDS011;58101;48.658;2.328;2022-07-19T00:30:06;9.30;;;2.60;;
70549;SDS011;58101;48.658;2.328;2022-07-19T00:38:04;7.35;;;2.20;;
70549;SDS011;58101;48.658;2.328;2022-07-19T00:40:31;9.50;;;2.40;;
70549;SDS011;58101;48.658;2.328;2022-07-19T00:42:56;8.45;;;2.35;;
70549;SDS011;58101;48.658;2.328;2022-07-19T00:45:22;7.70;;;2.42;;
70549;SDS011;58101;48.658;2.328;2022-07-19T00:47:48;10.75;;;2.50;;
70549;SDS011;58101;48.658;2.328;2022-07-19T00:50:14;10.07;;;2.60;;
70549;SDS011;58101;48.658;2.328;2022-07-19T00:52:40;11.88;;;2.53;;
70549;SDS011;58101;48.658;2.328;2022-07-19T00:55:08;6.93;;;2.20;;
70549;SDS011;58101;48.658;2.328;2022-07-19T00:57:35;10.73;;;2.17;;
70549;SDS011;58101;48.658;2.328;2022-07-19T01:00:07;9.45;;;2.35;;
70549;SDS011;58101;48.658;2.328;2022-07-19T01:02:50;7.47;;;2.28;;
70549;SDS011;58101;48.658;2.328;2022-07-19T01:05:16;8.90;;;2.30;;
70549;SDS011;58101;48.658;2.328;2022-07-19T01:10:52;7.93;;;2.45;;
70549;SDS011;58101;48.658;2.328;2022-07-19T01:15:44;7.60;;;2.30;;
70549;SDS011;58101;48.658;2.328;2022-07-19T01:18:09;8.25;;;2.40;;
70549;SDS011;58101;48.658;2.328;2022-07-19T01:20:35;8.07;;;2.40;;
70549;SDS011;58101;48.658;2.328;2022-07-19T01:23:02;7.97;;;2.47;;
70549;SDS011;58101;48.658;2.328;2022-07-19T01:25:29;9.63;;;2.45;;
70549;SDS011;58101;48.658;2.328;2022-07-19T01:27:57;10.75;;;2.40;;
70549;SDS011;58101;48.658;2.328;2022-07-19T01:30:23;8.07;;;2.35;;
70549;SDS011;58101;48.658;2.328;2022-07-19T01:32:56;7.95;;;2.17;;
70549;SDS011;58101;48.658;2.328;2022-07-19T01:35:23;6.93;;;2.30;;
70549;SDS011;58101;48.658;2.328;2022-07-19T01:37:49;7.38;;;2.38;;
70549;SDS011;58101;48.658;2.328;2022-07-19T01:40:17;10.25;;;2.30;;
70549;SDS011;58101;48.658;2.328;2022-07-19T01:42:43;6.63;;;2.30;;
70549;SDS011;58101;48.658;2.328;2022-07-19T01:48:06;9.65;;;2.85;;
70549;SDS011;58101;48.658;2.328;2022-07-19T01:50:32;10.10;;;2.60;;
70549;SDS011;58101;48.658;2.328;2022-07-19T01:52:58;7.53;;;2.03;;
70549;SDS011;58101;48.658;2.328;2022-07-19T01:55:23;7.25;;;2.28;;
70549;SDS011;58101;48.658;2.328;2022-07-19T01:57:49;8.95;;;2.42;;
70549;SDS011;58101;48.658;2.328;2022-07-19T02:02:41;8.70;;;2.50;;
70549;SDS011;58101;48.658;2.328;2022-07-19T02:05:22;9.32;;;2.17;;
70549;SDS011;58101;48.658;2.328;2022-07-19T02:07:51;8.82;;;2.22;;
70549;SDS011;58101;48.658;2.328;2022-07-19T02:10:17;10.40;;;2.60;;
70549;SDS011;58101;48.658;2.328;2022-07-19T02:19:08;8.10;;;2.60;;
70549;SDS011;58101;48.658;2.328;2022-07-19T02:21:47;7.93;;;2.05;;
70549;SDS011;58101;48.658;2.328;2022-07-19T02:24:13;8.73;;;2.42;;
70549;SDS011;58101;48.658;2.328;2022-07-19T02:26:39;7.60;;;2.53;;
70549;SDS011;58101;48.658;2.328;2022-07-19T02:29:05;9.32;;;2.50;;
70549;SDS011;58101;48.658;2.328;2022-07-19T02:31:31;10.07;;;2.63;;
70549;SDS011;58101;48.658;2.328;2022-07-19T02:36:32;9.02;;;2.30;;
70549;SDS011;58101;48.658;2.328;2022-07-19T02:39:01;10.57;;;2.40;;
70549;SDS011;58101;48.658;2.328;2022-07-19T02:41:26;7.32;;;2.30;;
70549;SDS011;58101;48.658;2.328;2022-07-19T02:43:52;9.20;;;2.50;;
70549;SDS011;58101;48.658;2.328;2022-07-19T02:46:18;9.25;;;2.40;;
70549;SDS011;58101;48.658;2.328;2022-07-19T02:48:43;7.57;;;2.50;;
70549;SDS011;58101;48.658;2.328;2022-07-19T02:51:10;11.15;;;2.63;;
70549;SDS011;58101;48.658;2.328;2022-07-19T02:53:49;8.65;;;2.45;;
70549;SDS011;58101;48.658;2.328;2022-07-19T02:57:03;9.50;;;2.80;;
70549;SDS011;58101;48.658;2.328;2022-07-19T02:59:29;9.38;;;2.85;;
70549;SDS011;58101;48.658;2.328;2022-07-19T03:02:13;10.30;;;2.90;;
70549;SDS011;58101;48.658;2.328;2022-07-19T03:07:33;9.27;;;2.85;;
70549;SDS011;58101;48.658;2.328;2022-07-19T03:13:21;10.07;;;3.00;;
70549;SDS011;58101;48.658;2.328;2022-07-19T03:31:03;10.38;;;2.58;;
70549;SDS011;58101;48.658;2.328;2022-07-19T03:33:28;9.88;;;2.95;;
70549;SDS011;58101;48.658;2.328;2022-07-19T03:35:54;10.27;;;2.90;;
70549;SDS011;58101;48.658;2.328;2022-07-19T03:38:20;10.50;;;2.85;;
70549;SDS011;58101;48.658;2.328;2022-07-19T03:40:46;9.32;;;3.00;;
70549;SDS011;58101;48.658;2.328;2022-07-19T03:43:12;7.68;;;2.88;;
70549;SDS011;58101;48.658;2.328;2022-07-19T03:49:01;11.05;;;3.13;;
70549;SDS011;58101;48.658;2.328;2022-07-19T03:51:27;12.70;;;3.58;;
70549;SDS011;58101;48.658;2.328;2022-07-19T03:53:53;10.13;;;2.90;;
70549;SDS011;58101;48.658;2.328;2022-07-19T03:56:21;13.63;;;3.15;;
70549;SDS011;58101;48.658;2.328;2022-07-19T03:58:47;11.75;;;3.20;;
70549;SDS011;58101;48.658;2.328;2022-07-19T04:01:14;10.98;;;3.25;;
70549;SDS011;58101;48.658;2.328;2022-07-19T04:03:41;10.68;;;3.10;;
70549;SDS011;58101;48.658;2.328;2022-07-19T04:06:07;10.48;;;3.10;;
70549;SDS011;58101;48.658;2.328;2022-07-19T04:08:38;10.32;;;3.00;;
70549;SDS011;58101;48.658;2.328;2022-07-19T04:11:04;11.38;;;2.97;;
70549;SDS011;58101;48.658;2.328;2022-07-19T04:16:33;11.57;;;3.50;;
70549;SDS011;58101;48.658;2.328;2022-07-19T04:18:59;10.60;;;2.95;;
70549;SDS011;58101;48.658;2.328;2022-07-19T04:21:33;8.65;;;3.17;;
70549;SDS011;58101;48.658;2.328;2022-07-19T04:23:59;11.88;;;3.03;;
70549;SDS011;58101;48.658;2.328;2022-07-19T04:26:25;10.82;;;2.85;;
70549;SDS011;58101;48.658;2.328;2022-07-19T04:28:50;11.43;;;3.10;;
70549;SDS011;58101;48.658;2.328;2022-07-19T04:31:16;11.60;;;2.85;;
70549;SDS011;58101;48.658;2.328;2022-07-19T04:33:42;10.02;;;2.75;;
70549;SDS011;58101;48.658;2.328;2022-07-19T04:36:26;10.65;;;3.22;;
70549;SDS011;58101;48.658;2.328;2022-07-19T04:39:12;10.93;;;2.92;;
70549;SDS011;58101;48.658;2.328;2022-07-19T04:41:43;11.23;;;2.95;;
70549;SDS011;58101;48.658;2.328;2022-07-19T04:44:09;12.02;;;3.20;;
70549;SDS011;58101;48.658;2.328;2022-07-19T04:46:47;10.70;;;2.78;;
70549;SDS011;58101;48.658;2.328;2022-07-19T04:52:00;12.30;;;2.90;;
70549;SDS011;58101;48.658;2.328;2022-07-19T04:54:26;9.82;;;2.70;;
70549;SDS011;58101;48.658;2.328;2022-07-19T04:57:01;9.80;;;3.17;;
70549;SDS011;58101;48.658;2.328;2022-07-19T04:59:44;14.02;;;3.60;;
70549;SDS011;58101;48.658;2.328;2022-07-19T05:02:10;11.45;;;3.00;;
70549;SDS011;58101;48.658;2.328;2022-07-19T05:04:36;10.07;;;3.10;;
70549;SDS011;58101;48.658;2.328;2022-07-19T05:07:11;9.02;;;2.58;;
70549;SDS011;58101;48.658;2.328;2022-07-19T05:09:43;9.38;;;3.00;;
70549;SDS011;58101;48.658;2.328;2022-07-19T05:17:45;9.40;;;2.88;;
70549;SDS011;58101;48.658;2.328;2022-07-19T05:20:11;12.02;;;2.70;;
70549;SDS011;58101;48.658;2.328;2022-07-19T05:23:29;11.07;;;2.90;;
70549;SDS011;58101;48.658;2.328;2022-07-19T05:26:48;8.20;;;2.70;;
70549;SDS011;58101;48.658;2.328;2022-07-19T05:29:05;12.70;;;3.17;;
70549;SDS011;58101;48.658;2.328;2022-07-19T05:31:31;11.70;;;3.10;;
70549;SDS011;58101;48.658;2.328;2022-07-19T05:33:57;11.02;;;3.00;;
70549;SDS011;58101;48.658;2.328;2022-07-19T05:36:23;12.60;;;2.65;;
70549;SDS011;58101;48.658;2.328;2022-07-19T05:38:51;9.88;;;3.00;;
70549;SDS011;58101;48.658;2.328;2022-07-19T05:41:25;9.85;;;2.55;;
70549;SDS011;58101;48.658;2.328;2022-07-19T05:43:54;10.00;;;2.67;;
70549;SDS011;58101;48.658;2.328;2022-07-19T05:46:20;9.18;;;3.05;;
70549;SDS011;58101;48.658;2.328;2022-07-19T05:48:45;11.45;;;2.85;;
70549;SDS011;58101;48.658;2.328;2022-07-19T05:51:26;10.73;;;2.78;;
70549;SDS011;58101;48.658;2.328;2022-07-19T05:53:52;11.95;;;2.90;;
70549;SDS011;58101;48.658;2.328;2022-07-19T05:56:17;13.32;;;3.00;;
70549;SDS011;58101;48.658;2.328;2022-07-19T05:58:43;12.85;;;2.97;;
70549;SDS011;58101;48.658;2.328;2022-07-19T06:01:09;13.02;;;2.80;;
70549;SDS011;58101;48.658;2.328;2022-07-19T06:03:54;11.57;;;2.90;;
70549;SDS011;58101;48.658;2.328;2022-07-19T06:07:14;12.40;;;2.95;;
70549;SDS011;58101;48.658;2.328;2022-07-19T06:09:39;10.52;;;2.90;;
70549;SDS011;58101;48.658;2.328;2022-07-19T06:12:05;13.75;;;2.88;;
70549;SDS011;58101;48.658;2.328;2022-07-19T06:14:31;12.48;;;2.72;;
70549;SDS011;58101;48.658;2.328;2022-07-19T06:16:57;13.73;;;2.97;;
70549;SDS011;58101;48.658;2.328;2022-07-19T06:19:22;13.63;;;3.28;;
70549;SDS011;58101;48.658;2.328;2022-07-19T06:21:52;10.20;;;3.17;;
70549;SDS011;58101;48.658;2.328;2022-07-19T06:24:20;16.35;;;3.35;;
70549;SDS011;58101;48.658;2.328;2022-07-19T06:26:46;13.85;;;2.88;;
70549;SDS011;58101;48.658;2.328;2022-07-19T06:29:12;13.68;;;3.08;;
70549;SDS011;58101;48.658;2.328;2022-07-19T06:31:37;11.88;;;2.85;;
70549;SDS011;58101;48.658;2.328;2022-07-19T06:34:03;10.77;;;2.80;;
70549;SDS011;58101;48.658;2.328;2022-07-19T06:36:28;11.15;;;2.90;;
70549;SDS011;58101;48.658;2.328;2022-07-19T06:38:54;9.32;;;2.83;;
70549;SDS011;58101;48.658;2.328;2022-07-19T06:41:20;13.85;;;3.63;;
70549;SDS011;58101;48.658;2.328;2022-07-19T06:43:45;11.77;;;3.15;;
70549;SDS011;58101;48.658;2.328;2022-07-19T06:46:11;10.60;;;3.22;;
70549;SDS011;58101;48.658;2.328;2022-07-19T06:48:37;13.93;;;3.40;;
70549;SDS011;58101;48.658;2.328;2022-07-19T06:54:05;10.15;;;3.10;;
70549;SDS011;58101;48.658;2.328;2022-07-19T06:56:31;11.20;;;3.08;;
70549;SDS011;58101;48.658;2.328;2022-07-19T07:10:07;16.73;;;3.40;;
70549;SDS011;58101;48.658;2.328;2022-07-19T07:12:42;17.25;;;3.72;;
70549;SDS011;58101;48.658;2.328;2022-07-19T07:15:08;12.02;;;3.38;;
70549;SDS011;58101;48.658;2.328;2022-07-19T07:20:15;13.13;;;3.55;;
70549;SDS011;58101;48.658;2.328;2022-07-19T07:25:12;12.32;;;3.25;;
70549;SDS011;58101;48.658;2.328;2022-07-19T07:30:04;9.43;;;3.22;;
70549;SDS011;58101;48.658;2.328;2022-07-19T07:32:30;11.57;;;3.38;;
70549;SDS011;58101;48.658;2.328;2022-07-19T07:37:22;9.38;;;3.17;;
70549;SDS011;58101;48.658;2.328;2022-07-19T07:42:13;8.75;;;2.90;;
70549;SDS011;58101;48.658;2.328;2022-07-19T07:44:39;10.05;;;3.10;;
70549;SDS011;58101;48.658;2.328;2022-07-19T07:47:05;10.77;;;3.33;;
70549;SDS011;58101;48.658;2.328;2022-07-19T07:49:42;10.00;;;3.35;;
70549;SDS011;58101;48.658;2.328;2022-07-19T07:52:08;10.02;;;2.80;;
70549;SDS011;58101;48.658;2.328;2022-07-19T07:54:36;10.57;;;3.13;;
70549;SDS011;58101;48.658;2.328;2022-07-19T07:57:03;10.85;;;3.40;;
70549;SDS011;58101;48.658;2.328;2022-07-19T08:04:59;9.20;;;3.50;;
70549;SDS011;58101;48.658;2.328;2022-07-19T08:07:27;10.13;;;3.00;;
70549;SDS011;58101;48.658;2.328;2022-07-19T08:09:56;7.80;;;3.28;;
70549;SDS011;58101;48.658;2.328;2022-07-19T08:12:24;11.35;;;3.30;;
70549;SDS011;58101;48.658;2.328;2022-07-19T08:14:59;10.93;;;3.10;;
70549;SDS011;58101;48.658;2.328;2022-07-19T08:17:25;9.25;;;3.28;;
70549;SDS011;58101;48.658;2.328;2022-07-19T08:19:51;9.82;;;3.38;;
70549;SDS011;58101;48.658;2.328;2022-07-19T08:22:17;11.57;;;3.78;;
70549;SDS011;58101;48.658;2.328;2022-07-19T08:24:46;11.90;;;3.15;;
70549;SDS011;58101;48.658;2.328;2022-07-19T08:27:11;9.35;;;3.10;;
70549;SDS011;58101;48.658;2.328;2022-07-19T08:29:38;10.23;;;3.00;;
70549;SDS011;58101;48.658;2.328;2022-07-19T08:32:03;8.85;;;3.20;;
70549;SDS011;58101;48.658;2.328;2022-07-19T08:34:32;11.88;;;3.05;;
70549;SDS011;58101;48.658;2.328;2022-07-19T08:37:06;9.55;;;3.20;;
70549;SDS011;58101;48.658;2.328;2022-07-19T08:42:42;11.88;;;3.10;;
70549;SDS011;58101;48.658;2.328;2022-07-19T08:45:09;10.07;;;3.20;;
70549;SDS011;58101;48.658;2.328;2022-07-19T08:47:36;8.10;;;3.00;;
70549;SDS011;58101;48.658;2.328;2022-07-19T08:50:06;7.88;;;2.85;;
70549;SDS011;58101;48.658;2.328;2022-07-19T08:55:54;7.93;;;2.90;;
70549;SDS011;58101;48.658;2.328;2022-07-19T08:58:20;10.82;;;3.50;;
70549;SDS011;58101;48.658;2.328;2022-07-19T09:00:45;12.13;;;3.13;;
70549;SDS011;58101;48.658;2.328;2022-07-19T09:08:22;10.30;;;3.28;;
70549;SDS011;58101;48.658;2.328;2022-07-19T09:13:32;12.38;;;3.38;;
70549;SDS011;58101;48.658;2.328;2022-07-19T09:16:11;13.32;;;3.38;;
70549;SDS011;58101;48.658;2.328;2022-07-19T09:24:33;12.57;;;3.45;;
70549;SDS011;58101;48.658;2.328;2022-07-19T09:29:42;13.07;;;3.40;;
70549;SDS011;58101;48.658;2.328;2022-07-19T09:41:25;11.57;;;3.28;;
70549;SDS011;58101;48.658;2.328;2022-07-19T09:44:06;9.73;;;3.75;;
70549;SDS011;58101;48.658;2.328;2022-07-19T09:49:54;10.70;;;3.60;;
70549;SDS011;58101;48.658;2.328;2022-07-19T09:52:22;12.10;;;3.58;;
70549;SDS011;58101;48.658;2.328;2022-07-19T09:55:08;12.80;;;3.47;;
70549;SDS011;58101;48.658;2.328;2022-07-19T10:29:26;11.10;;;3.03;;
70549;SDS011;58101;48.658;2.328;2022-07-19T10:37:42;13.82;;;3.17;;
70549;SDS011;58101;48.658;2.328;2022-07-19T10:40:08;11.30;;;3.50;;
70549;SDS011;58101;48.658;2.328;2022-07-19T10:43:23;10.65;;;3.08;;
70549;SDS011;58101;48.658;2.328;2022-07-19T10:45:40;14.82;;;3.42;;
70549;SDS011;58101;48.658;2.328;2022-07-19T10:51:06;12.10;;;3.20;;
70549;SDS011;58101;48.658;2.328;2022-07-19T10:56:55;9.45;;;2.92;;
70549;SDS011;58101;48.658;2.328;2022-07-19T10:59:43;11.95;;;3.30;;
70549;SDS011;58101;48.658;2.328;2022-07-19T11:05:31;9.40;;;3.22;;
70549;SDS011;58101;48.658;2.328;2022-07-19T11:08:03;10.88;;;3.05;;
70549;SDS011;58101;48.658;2.328;2022-07-19T11:10:43;12.10;;;3.15;;
70549;SDS011;58101;48.658;2.328;2022-07-19T11:13:15;11.45;;;3.50;;
70549;SDS011;58101;48.658;2.328;2022-07-19T11:18:32;9.65;;;3.40;;
70549;SDS011;58101;48.658;2.328;2022-07-19T11:21:04;11.23;;;3.30;;
70549;SDS011;58101;48.658;2.328;2022-07-19T11:23:35;13.50;;;3.63;;
70549;SDS011;58101;48.658;2.328;2022-07-19T11:29:23;11.45;;;4.03;;
70549;SDS011;58101;48.658;2.328;2022-07-19T11:35:11;11.55;;;3.20;;
70549;SDS011;58101;48.658;2.328;2022-07-19T11:37:42;10.30;;;3.28;;
70549;SDS011;58101;48.658;2.328;2022-07-19T11:40:11;12.15;;;3.42;;
70549;SDS011;58101;48.658;2.328;2022-07-19T11:52:06;12.43;;;3.35;;
70549;SDS011;58101;48.658;2.328;2022-07-19T11:54:32;12.85;;;3.60;;
70549;SDS011;58101;48.658;2.328;2022-07-19T11:56:58;10.18;;;3.22;;
70549;SDS011;58101;48.658;2.328;2022-07-19T11:59:23;11.65;;;3.28;;
70549;SDS011;58101;48.658;2.328;2022-07-19T12:04:47;11.52;;;3.15;;
70549;SDS011;58101;48.658;2.328;2022-07-19T12:13:39;12.35;;;3.20;;
70549;SDS011;58101;48.658;2.328;2022-07-19T12:16:10;13.68;;;3.33;;
70549;SDS011;58101;48.658;2.328;2022-07-19T12:21:45;11.75;;;3.20;;
70549;SDS011;58101;48.658;2.328;2022-07-19T12:32:10;11.70;;;3.20;;
70549;SDS011;58101;48.658;2.328;2022-07-19T12:34:48;10.63;;;3.10;;
70549;SDS011;58101;48.658;2.328;2022-07-19T12:37:31;11.00;;;3.03;;
70549;SDS011;58101;48.658;2.328;2022-07-19T12:40:13;13.95;;;3.63;;
70549;SDS011;58101;48.658;2.328;2022-07-19T12:46:32;12.85;;;3.80;;
70549;SDS011;58101;48.658;2.328;2022-07-19T12:48:42;9.88;;;4.00;;
70549;SDS011;58101;48.658;2.328;2022-07-19T12:51:17;11.48;;;4.00;;
70549;SDS011;58101;48.658;2.328;2022-07-19T12:56:28;13.45;;;4.57;;
70549;SDS011;58101;48.658;2.328;2022-07-19T12:58:54;15.63;;;4.22;;
70549;SDS011;58101;48.658;2.328;2022-07-19T13:01:51;11.13;;;4.30;;
70549;SDS011;58101;48.658;2.328;2022-07-19T13:04:32;10.25;;;4.30;;
70549;SDS011;58101;48.658;2.328;2022-07-19T13:09:57;11.07;;;4.40;;
70549;SDS011;58101;48.658;2.328;2022-07-19T13:12:35;17.00;;;4.35;;
70549;SDS011;58101;48.658;2.328;2022-07-19T13:17:40;10.50;;;4.35;;
70549;SDS011;58101;48.658;2.328;2022-07-19T13:20:06;11.35;;;4.35;;
70549;SDS011;58101;48.658;2.328;2022-07-19T13:22:36;9.27;;;4.60;;
70549;SDS011;58101;48.658;2.328;2022-07-19T13:28:21;11.80;;;4.13;;
70549;SDS011;58101;48.658;2.328;2022-07-19T13:30:50;11.00;;;3.80;;
70549;SDS011;58101;48.658;2.328;2022-07-19T13:33:16;10.45;;;4.00;;
70549;SDS011;58101;48.658;2.328;2022-07-19T13:35:51;9.00;;;3.70;;
70549;SDS011;58101;48.658;2.328;2022-07-19T13:38:17;12.98;;;4.35;;
70549;SDS011;58101;48.658;2.328;2022-07-19T13:40:43;8.80;;;4.20;;
70549;SDS011;58101;48.658;2.328;2022-07-19T13:43:20;10.30;;;4.22;;
70549;SDS011;58101;48.658;2.328;2022-07-19T13:46:04;11.82;;;4.15;;
70549;SDS011;58101;48.658;2.328;2022-07-19T13:48:46;9.75;;;4.05;;
70549;SDS011;58101;48.658;2.328;2022-07-19T13:51:18;12.80;;;4.30;;
70549;SDS011;58101;48.658;2.328;2022-07-19T13:57:10;9.95;;;4.18;;
70549;SDS011;58101;48.658;2.328;2022-07-19T13:59:57;9.18;;;3.75;;
70549;SDS011;58101;48.658;2.328;2022-07-19T14:08:54;12.10;;;4.30;;
70549;SDS011;58101;48.658;2.328;2022-07-19T14:11:19;9.85;;;4.43;;
70549;SDS011;58101;48.658;2.328;2022-07-19T14:16:31;11.32;;;4.30;;
70549;SDS011;58101;48.658;2.328;2022-07-19T14:18:57;10.25;;;3.97;;
70549;SDS011;58101;48.658;2.328;2022-07-19T14:21:29;12.20;;;4.30;;
70549;SDS011;58101;48.658;2.328;2022-07-19T14:23:59;8.82;;;4.00;;
70549;SDS011;58101;48.658;2.328;2022-07-19T14:26:36;11.93;;;4.30;;
70549;SDS011;58101;48.658;2.328;2022-07-19T14:29:05;13.30;;;4.50;;
70549;SDS011;58101;48.658;2.328;2022-07-19T14:31:31;9.10;;;4.40;;
70549;SDS011;58101;48.658;2.328;2022-07-19T14:37:16;8.95;;;4.40;;
70549;SDS011;58101;48.658;2.328;2022-07-19T14:39:41;9.75;;;4.45;;
70549;SDS011;58101;48.658;2.328;2022-07-19T14:42:07;8.32;;;4.45;;
70549;SDS011;58101;48.658;2.328;2022-07-19T14:51:28;9.75;;;4.20;;
70549;SDS011;58101;48.658;2.328;2022-07-19T14:54:12;8.32;;;4.22;;
70549;SDS011;58101;48.658;2.328;2022-07-19T14:56:43;8.52;;;4.40;;
70549;SDS011;58101;48.658;2.328;2022-07-19T14:59:09;9.98;;;4.50;;
70549;SDS011;58101;48.658;2.328;2022-07-19T15:05:04;10.65;;;4.40;;
70549;SDS011;58101;48.658;2.328;2022-07-19T15:10:19;10.13;;;4.10;;
70549;SDS011;58101;48.658;2.328;2022-07-19T15:12:45;8.65;;;3.83;;
70549;SDS011;58101;48.658;2.328;2022-07-19T15:15:10;9.73;;;3.88;;
70549;SDS011;58101;48.658;2.328;2022-07-19T15:17:36;9.68;;;3.92;;
70549;SDS011;58101;48.658;2.328;2022-07-19T15:20:02;7.97;;;3.80;;
70549;SDS011;58101;48.658;2.328;2022-07-19T15:22:41;10.13;;;4.32;;
70549;SDS011;58101;48.658;2.328;2022-07-19T15:25:21;8.75;;;3.70;;
70549;SDS011;58101;48.658;2.328;2022-07-19T15:30:46;8.43;;;3.67;;
70549;SDS011;58101;48.658;2.328;2022-07-19T15:33:11;7.97;;;3.58;;
70549;SDS011;58101;48.658;2.328;2022-07-19T15:35:40;7.13;;;3.10;;
70549;SDS011;58101;48.658;2.328;2022-07-19T15:43:52;8.27;;;3.30;;
70549;SDS011;58101;48.658;2.328;2022-07-19T15:46:38;7.03;;;3.13;;
70549;SDS011;58101;48.658;2.328;2022-07-19T15:49:04;10.23;;;3.42;;
70549;SDS011;58101;48.658;2.328;2022-07-19T15:51:30;10.80;;;3.30;;
70549;SDS011;58101;48.658;2.328;2022-07-19T15:54:15;6.75;;;3.10;;
70549;SDS011;58101;48.658;2.328;2022-07-19T15:56:41;7.55;;;3.25;;
70549;SDS011;58101;48.658;2.328;2022-07-19T15:59:15;7.35;;;3.50;;
70549;SDS011;58101;48.658;2.328;2022-07-19T16:01:41;9.23;;;3.38;;
70549;SDS011;58101;48.658;2.328;2022-07-19T16:07:29;8.38;;;3.38;;
70549;SDS011;58101;48.658;2.328;2022-07-19T16:09:54;7.57;;;3.45;;
70549;SDS011;58101;48.658;2.328;2022-07-19T16:12:32;7.90;;;3.60;;
70549;SDS011;58101;48.658;2.328;2022-07-19T16:17:46;9.45;;;3.70;;
70549;SDS011;58101;48.658;2.328;2022-07-19T16:20:13;7.47;;;3.80;;
70549;SDS011;58101;48.658;2.328;2022-07-19T16:22:40;9.35;;;3.72;;
70549;SDS011;58101;48.658;2.328;2022-07-19T16:25:09;8.52;;;3.45;;
70549;SDS011;58101;48.658;2.328;2022-07-19T16:30:57;7.68;;;3.80;;
70549;SDS011;58101;48.658;2.328;2022-07-19T16:33:25;7.60;;;3.80;;
70549;SDS011;58101;48.658;2.328;2022-07-19T16:39:15;10.65;;;4.40;;
70549;SDS011;58101;48.658;2.328;2022-07-19T16:41:41;10.55;;;4.13;;
70549;SDS011;58101;48.658;2.328;2022-07-19T16:53:11;9.38;;;5.60;;
70549;SDS011;58101;48.658;2.328;2022-07-19T16:55:43;18.02;;;8.43;;
70549;SDS011;58101;48.658;2.328;2022-07-19T16:58:11;18.90;;;9.90;;
70549;SDS011;58101;48.658;2.328;2022-07-19T17:00:37;18.48;;;11.38;;
70549;SDS011;58101;48.658;2.328;2022-07-19T17:05:38;23.20;;;16.85;;
70549;SDS011;58101;48.658;2.328;2022-07-19T17:10:51;26.88;;;17.25;;
70549;SDS011;58101;48.658;2.328;2022-07-19T17:16:10;25.38;;;19.77;;
70549;SDS011;58101;48.658;2.328;2022-07-19T17:18:37;32.40;;;21.33;;
70549;SDS011;58101;48.658;2.328;2022-07-19T17:24:15;34.65;;;23.88;;
70549;SDS011;58101;48.658;2.328;2022-07-19T17:26:41;35.92;;;24.27;;
70549;SDS011;58101;48.658;2.328;2022-07-19T17:29:07;31.38;;;23.48;;
70549;SDS011;58101;48.658;2.328;2022-07-19T17:40:16;28.02;;;18.73;;
70549;SDS011;58101;48.658;2.328;2022-07-19T17:42:42;25.95;;;16.95;;
70549;SDS011;58101;48.658;2.328;2022-07-19T17:51:31;27.40;;;14.65;;
70549;SDS011;58101;48.658;2.328;2022-07-19T17:54:00;26.75;;;14.52;;
70549;SDS011;58101;48.658;2.328;2022-07-19T17:56:25;24.85;;;14.20;;
70549;SDS011;58101;48.658;2.328;2022-07-19T18:04:39;21.73;;;12.52;;
70549;SDS011;58101;48.658;2.328;2022-07-19T18:24:58;19.95;;;11.30;;
70549;SDS011;58101;48.658;2.328;2022-07-19T18:27:24;20.13;;;11.15;;
70549;SDS011;58101;48.658;2.328;2022-07-19T18:29:50;19.35;;;10.88;;
70549;SDS011;58101;48.658;2.328;2022-07-19T18:32:16;18.02;;;10.63;;
70549;SDS011;58101;48.658;2.328;2022-07-19T18:34:51;23.48;;;11.63;;
70549;SDS011;58101;48.658;2.328;2022-07-19T18:37:17;21.08;;;11.60;;
70549;SDS011;58101;48.658;2.328;2022-07-19T18:39:43;20.55;;;11.45;;
70549;SDS011;58101;48.658;2.328;2022-07-19T18:42:18;16.48;;;10.82;;
70549;SDS011;58101;48.658;2.328;2022-07-19T18:44:44;21.05;;;10.98;;
70549;SDS011;58101;48.658;2.328;2022-07-19T18:47:18;18.27;;;10.68;;
70549;SDS011;58101;48.658;2.328;2022-07-19T18:49:47;20.38;;;11.40;;
70549;SDS011;58101;48.658;2.328;2022-07-19T18:52:21;18.65;;;11.20;;
70549;SDS011;58101;48.658;2.328;2022-07-19T18:55:02;18.63;;;11.25;;
70549;SDS011;58101;48.658;2.328;2022-07-19T19:00:36;18.40;;;11.32;;
70549;SDS011;58101;48.658;2.328;2022-07-19T19:03:01;20.52;;;11.57;;
70549;SDS011;58101;48.658;2.328;2022-07-19T19:05:30;19.77;;;11.82;;
70549;SDS011;58101;48.658;2.328;2022-07-19T19:07:59;18.52;;;11.65;;
70549;SDS011;58101;48.658;2.328;2022-07-19T19:10:25;23.35;;;11.90;;
70549;SDS011;58101;48.658;2.328;2022-07-19T19:12:50;19.80;;;12.00;;
70549;SDS011;58101;48.658;2.328;2022-07-19T19:15:16;19.65;;;12.63;;
70549;SDS011;58101;48.658;2.328;2022-07-19T19:17:43;21.05;;;13.07;;
70549;SDS011;58101;48.658;2.328;2022-07-19T19:23:00;25.55;;;17.60;;
70549;SDS011;58101;48.658;2.328;2022-07-19T19:25:27;35.65;;;23.65;;
70549;SDS011;58101;48.658;2.328;2022-07-19T19:27:53;38.30;;;26.15;;
70549;SDS011;58101;48.658;2.328;2022-07-19T19:30:24;45.85;;;31.73;;
70549;SDS011;58101;48.658;2.328;2022-07-19T19:32:55;42.60;;;32.97;;
70549;SDS011;58101;48.658;2.328;2022-07-19T19:35:21;53.60;;;35.45;;
70549;SDS011;58101;48.658;2.328;2022-07-19T19:38:00;49.58;;;37.80;;
70549;SDS011;58101;48.658;2.328;2022-07-19T19:46:15;30.83;;;18.08;;
70549;SDS011;58101;48.658;2.328;2022-07-19T19:48:44;26.50;;;14.02;;
70549;SDS011;58101;48.658;2.328;2022-07-19T19:51:13;20.70;;;12.25;;
70549;SDS011;58101;48.658;2.328;2022-07-19T19:53:42;20.83;;;11.95;;
70549;SDS011;58101;48.658;2.328;2022-07-19T19:56:11;20.88;;;10.82;;
70549;SDS011;58101;48.658;2.328;2022-07-19T19:58:49;18.67;;;9.93;;
70549;SDS011;58101;48.658;2.328;2022-07-19T20:01:30;21.98;;;9.82;;
70549;SDS011;58101;48.658;2.328;2022-07-19T20:03:55;16.73;;;8.65;;
70549;SDS011;58101;48.658;2.328;2022-07-19T20:06:33;16.08;;;9.27;;
70549;SDS011;58101;48.658;2.328;2022-07-19T20:08:59;17.67;;;8.90;;
70549;SDS011;58101;48.658;2.328;2022-07-19T20:14:06;16.67;;;8.52;;
70549;SDS011;58101;48.658;2.328;2022-07-19T20:16:32;15.88;;;8.57;;
70549;SDS011;58101;48.658;2.328;2022-07-19T20:21:29;15.63;;;8.10;;
70549;SDS011;58101;48.658;2.328;2022-07-19T20:23:58;14.82;;;7.85;;
70549;SDS011;58101;48.658;2.328;2022-07-19T20:26:41;16.17;;;8.10;;
70549;SDS011;58101;48.658;2.328;2022-07-19T20:32:04;15.65;;;7.60;;
70549;SDS011;58101;48.658;2.328;2022-07-19T20:34:33;13.57;;;6.72;;
70549;SDS011;58101;48.658;2.328;2022-07-19T20:36:59;19.00;;;7.70;;
70549;SDS011;58101;48.658;2.328;2022-07-19T20:39:25;13.60;;;7.22;;
70549;SDS011;58101;48.658;2.328;2022-07-19T20:41:51;14.32;;;6.50;;
70549;SDS011;58101;48.658;2.328;2022-07-19T20:44:17;16.08;;;6.88;;
70549;SDS011;58101;48.658;2.328;2022-07-19T20:46:47;13.65;;;6.90;;
70549;SDS011;58101;48.658;2.328;2022-07-19T20:49:22;14.70;;;6.72;;
70549;SDS011;58101;48.658;2.328;2022-07-19T20:51:51;15.55;;;7.07;;
70549;SDS011;58101;48.658;2.328;2022-07-19T20:54:22;16.80;;;7.05;;
70549;SDS011;58101;48.658;2.328;2022-07-19T21:00:34;14.90;;;6.95;;
70549;SDS011;58101;48.658;2.328;2022-07-19T21:03:21;14.45;;;7.32;;
70549;SDS011;58101;48.658;2.328;2022-07-19T21:05:48;14.88;;;6.97;;
70549;SDS011;58101;48.658;2.328;2022-07-19T21:08:19;14.15;;;7.05;;